Time;durP1;ratioP1;P1;durP2;ratioP2;P2;SDS_P1;SDS_P2;PMS_P1;PMS_P2;Temp;Humidity;BMP_temperature;BMP_pressure;BME280_temperature;BME280_humidity;BME280_pressure;Samples;Min_cycle;Max_cycle;Signal;HPM_P1;HPM_P2
2022/06/21 00:00:54;;;;;;;10.93;3.13;;;;;;;;;;5072321;28;20454;-49
2022/06/21 00:03:25;;;;;;;10.00;2.95;;;;;;;;;;5072182;28;20044;-53
2022/06/21 00:05:55;;;;;;;6.40;2.72;;;;;;;;;;5071843;28;20396;-51
2022/06/21 00:08:26;;;;;;;8.73;3.40;;;;;;;;;;5072057;28;20565;-49
2022/06/21 00:10:56;;;;;;;10.52;3.08;;;;;;;;;;5072232;28;20503;-45
2022/06/21 00:13:32;;;;;;;8.98;2.70;;;;;;;;;;5071573;28;20073;-46
2022/06/21 00:16:07;;;;;;;8.93;2.60;;;;;;;;;;5071996;28;20044;-46
2022/06/21 00:18:37;;;;;;;12.13;3.33;;;;;;;;;;5071906;28;20555;-48
2022/06/21 00:21:20;;;;;;;12.75;3.30;;;;;;;;;;5072022;28;20055;-51
2022/06/21 00:23:50;;;;;;;4.10;2.33;;;;;;;;;;5072192;28;20131;-50
2022/06/21 00:26:20;;;;;;;8.45;2.97;;;;;;;;;;5071661;28;20080;-50
2022/06/21 00:28:48;;;;;;;4.78;2.83;;;;;;;;;;5071772;28;20036;-51
2022/06/21 00:31:27;;;;;;;6.28;2.70;;;;;;;;;;5072177;28;20037;-51
2022/06/21 00:33:56;;;;;;;8.75;2.97;;;;;;;;;;5071795;28;20051;-51
2022/06/21 00:36:26;;;;;;;14.20;4.25;;;;;;;;;;5071780;28;20044;-50
2022/06/21 00:38:55;;;;;;;16.58;3.65;;;;;;;;;;5071476;28;20032;-50
2022/06/21 00:41:49;;;;;;;8.95;3.22;;;;;;;;;;5071536;28;20136;-43
2022/06/21 00:44:38;;;;;;;12.13;3.40;;;;;;;;;;5064897;28;20057;-42
2022/06/21 00:47:15;;;;;;;7.43;2.70;;;;;;;;;;5071357;28;20048;-42
2022/06/21 00:50:11;;;;;;;5.32;3.15;;;;;;;;;;5069856;28;20067;-45
2022/06/21 00:52:46;;;;;;;17.23;2.83;;;;;;;;;;5070165;28;20106;-43
2022/06/21 00:55:29;;;;;;;4.90;2.90;;;;;;;;;;5071443;28;20036;-52
2022/06/21 00:57:57;;;;;;;5.20;2.70;;;;;;;;;;5070832;28;20058;-48
2022/06/21 01:00:29;;;;;;;10.88;2.88;;;;;;;;;;5071159;28;20127;-51
2022/06/21 01:02:59;;;;;;;14.25;3.05;;;;;;;;;;5071027;28;20048;-43
2022/06/21 01:05:30;;;;;;;5.10;3.20;;;;;;;;;;5071092;28;20110;-52
2022/06/21 01:07:58;;;;;;;7.25;2.97;;;;;;;;;;5070854;28;20052;-48
2022/06/21 01:10:28;;;;;;;4.47;2.60;;;;;;;;;;5070722;28;20052;-43
2022/06/21 01:13:04;;;;;;;6.68;2.88;;;;;;;;;;5070603;28;20381;-48
2022/06/21 01:15:39;;;;;;;7.35;2.72;;;;;;;;;;5070937;28;20056;-52
2022/06/21 01:18:09;;;;;;;6.40;2.60;;;;;;;;;;5070535;28;20044;-43
2022/06/21 01:20:40;;;;;;;5.65;2.92;;;;;;;;;;5070971;28;20041;-51
2022/06/21 01:23:27;;;;;;;6.53;2.83;;;;;;;;;;5070530;28;20049;-46
2022/06/21 01:26:19;;;;;;;5.18;2.80;;;;;;;;;;5070268;28;20055;-45
2022/06/21 01:28:46;;;;;;;5.80;3.15;;;;;;;;;;5070587;28;20098;-45
2022/06/21 01:31:13;;;;;;;5.97;2.85;;;;;;;;;;5070448;28;20048;-46
2022/06/21 01:33:42;;;;;;;6.10;2.75;;;;;;;;;;5070521;28;20067;-48
2022/06/21 01:36:17;;;;;;;6.05;2.80;;;;;;;;;;5070417;28;20098;-44
2022/06/21 01:39:13;;;;;;;4.90;2.95;;;;;;;;;;5070019;28;20086;-45
2022/06/21 01:42:11;;;;;;;10.90;3.38;;;;;;;;;;5059380;28;20079;-52
2022/06/21 01:44:44;;;;;;;6.50;2.78;;;;;;;;;;5070047;28;20052;-48
2022/06/21 01:47:21;;;;;;;19.52;2.90;;;;;;;;;;5070175;28;20495;-50
2022/06/21 01:49:55;;;;;;;4.38;2.60;;;;;;;;;;5070150;28;20051;-49
2022/06/21 01:52:25;;;;;;;8.13;2.95;;;;;;;;;;5070284;28;20090;-50
2022/06/21 01:54:59;;;;;;;9.10;2.90;;;;;;;;;;5070350;28;20045;-50
2022/06/21 01:57:28;;;;;;;4.47;2.80;;;;;;;;;;5070190;28;20046;-45
2022/06/21 01:59:58;;;;;;;6.88;2.92;;;;;;;;;;5070145;28;20041;-51
2022/06/21 02:02:49;;;;;;;4.78;2.80;;;;;;;;;;5069784;28;20068;-54
2022/06/21 02:05:27;;;;;;;5.43;2.80;;;;;;;;;;5070078;28;20075;-53
2022/06/21 02:08:00;;;;;;;8.02;3.20;;;;;;;;;;5070044;28;20041;-44
2022/06/21 02:10:31;;;;;;;6.72;2.50;;;;;;;;;;5069923;28;20052;-53
2022/06/21 02:13:20;;;;;;;4.95;2.60;;;;;;;;;;5069601;28;20045;-40
2022/06/21 02:15:55;;;;;;;8.05;3.47;;;;;;;;;;5069988;28;20052;-45
2022/06/21 02:18:27;;;;;;;7.75;3.08;;;;;;;;;;5069993;28;20045;-45
2022/06/21 02:21:03;;;;;;;7.65;2.90;;;;;;;;;;5070274;28;20040;-44
2022/06/21 02:23:30;;;;;;;5.18;2.85;;;;;;;;;;5069794;28;20044;-42
2022/06/21 02:25:58;;;;;;;7.78;2.97;;;;;;;;;;5070014;28;20105;-54
2022/06/21 02:28:28;;;;;;;9.10;2.50;;;;;;;;;;5070085;28;20047;-42
2022/06/21 02:30:58;;;;;;;5.18;2.70;;;;;;;;;;5069938;28;20044;-42
2022/06/21 02:33:29;;;;;;;3.75;2.38;;;;;;;;;;5068665;28;20515;-53
2022/06/21 02:36:04;;;;;;;5.03;3.03;;;;;;;;;;5069623;28;20041;-43
2022/06/21 02:38:38;;;;;;;5.30;3.13;;;;;;;;;;5069554;28;20037;-53
2022/06/21 02:41:11;;;;;;;6.70;2.90;;;;;;;;;;5069789;28;20052;-44
2022/06/21 02:43:57;;;;;;;10.93;3.20;;;;;;;;;;5069782;28;20036;-43
2022/06/21 02:46:29;;;;;;;5.05;2.60;;;;;;;;;;5069777;28;20102;-43
2022/06/21 02:49:01;;;;;;;7.72;3.33;;;;;;;;;;5069748;28;20040;-46
2022/06/21 02:51:35;;;;;;;6.70;3.53;;;;;;;;;;5069786;28;20098;-44
2022/06/21 02:54:23;;;;;;;9.52;3.33;;;;;;;;;;5069539;28;20050;-49
2022/06/21 02:57:00;;;;;;;6.00;3.15;;;;;;;;;;5069513;28;20099;-53
2022/06/21 02:59:32;;;;;;;6.50;3.38;;;;;;;;;;5069398;28;20396;-47
2022/06/21 03:02:07;;;;;;;9.20;3.15;;;;;;;;;;5069352;28;20053;-52
2022/06/21 03:04:43;;;;;;;5.65;3.20;;;;;;;;;;5069350;28;20579;-45
2022/06/21 03:07:16;;;;;;;7.90;4.10;;;;;;;;;;5070298;28;20086;-53
2022/06/21 03:09:44;;;;;;;8.95;4.43;;;;;;;;;;5073280;28;20036;-53
2022/06/21 03:12:17;;;;;;;10.32;5.60;;;;;;;;;;5072754;28;20040;-47
2022/06/21 03:14:45;;;;;;;;;;;;;;;;;;5073419;28;20893;-52
2022/06/21 03:17:16;;;;;;;9.95;5.40;;;;;;;;;;5073116;28;20017;-51
2022/06/21 03:19:49;;;;;;;8.75;5.50;;;;;;;;;;5072953;28;20812;-54
2022/06/21 03:22:33;;;;;;;9.52;5.93;;;;;;;;;;5073179;28;20082;-51
2022/06/21 03:25:06;;;;;;;13.30;6.78;;;;;;;;;;5073060;28;20064;-53
2022/06/21 03:27:55;;;;;;;10.07;6.57;;;;;;;;;;5072711;28;20068;-52
2022/06/21 03:30:28;;;;;;;9.85;5.88;;;;;;;;;;5072993;28;20045;-52
2022/06/21 03:32:57;;;;;;;;;;;;;;;;;;5073387;28;20049;-48
2022/06/21 03:35:27;;;;;;;12.80;6.88;;;;;;;;;;5073018;28;20397;-51
2022/06/21 03:37:54;;;;;;;11.02;6.70;;;;;;;;;;5072669;28;20037;-46
2022/06/21 03:43:24;;;;;;;12.48;7.70;;;;;;;;;;5072763;28;20047;-42
2022/06/21 03:45:54;;;;;;;10.75;7.03;;;;;;;;;;5071246;28;20516;-44
2022/06/21 03:48:29;;;;;;;11.73;8.10;;;;;;;;;;5072362;28;20500;-53
2022/06/21 03:51:04;;;;;;;11.00;6.90;;;;;;;;;;5072282;28;20091;-49
2022/06/21 03:53:41;;;;;;;10.65;7.13;;;;;;;;;;5072604;28;20407;-50
2022/06/21 03:56:18;;;;;;;12.27;8.07;;;;;;;;;;5072164;28;20048;-43
2022/06/21 03:59:08;;;;;;;10.07;7.50;;;;;;;;;;5072244;28;20499;-48
2022/06/21 04:02:07;;;;;;;10.07;7.25;;;;;;;;;;5072235;28;20059;-46
2022/06/21 04:04:46;;;;;;;10.30;7.78;;;;;;;;;;5052721;28;20065;-42
2022/06/21 04:07:25;;;;;;;11.10;7.75;;;;;;;;;;5072169;28;20063;-44
2022/06/21 04:10:37;;;;;;;9.52;7.30;;;;;;;;;;5072114;28;20075;-45
2022/06/21 04:13:11;;;;;;;11.13;7.53;;;;;;;;;;5049578;28;20057;-45
2022/06/21 04:15:59;;;;;;;9.30;7.50;;;;;;;;;;5070335;28;20067;-47
2022/06/21 04:18:36;;;;;;;9.05;7.18;;;;;;;;;;5071741;28;20055;-46
2022/06/21 04:21:42;;;;;;;10.30;7.43;;;;;;;;;;5071912;28;20396;-49
2022/06/21 04:24:27;;;;;;;11.10;7.50;;;;;;;;;;5071642;28;20057;-47
2022/06/21 04:27:04;;;;;;;9.52;6.85;;;;;;;;;;5071581;28;20427;-49
2022/06/21 04:29:48;;;;;;;8.65;6.88;;;;;;;;;;5071971;28;20102;-52
2022/06/21 04:32:26;;;;;;;8.35;6.47;;;;;;;;;;5071430;28;20044;-53
2022/06/21 04:35:04;;;;;;;11.38;6.88;;;;;;;;;;5072017;28;20115;-54
2022/06/21 04:37:49;;;;;;;8.65;7.05;;;;;;;;;;5071766;28;20400;-53
2022/06/21 04:40:27;;;;;;;8.07;6.72;;;;;;;;;;5071492;28;20044;-55
2022/06/21 04:43:04;;;;;;;8.93;6.60;;;;;;;;;;5071281;28;20534;-53
2022/06/21 04:45:41;;;;;;;7.95;6.30;;;;;;;;;;5071671;28;20040;-50
2022/06/21 04:48:34;;;;;;;7.18;5.90;;;;;;;;;;5071307;28;20059;-52
2022/06/21 04:51:11;;;;;;;9.35;6.32;;;;;;;;;;5071662;28;20036;-55
2022/06/21 04:54:02;;;;;;;6.35;5.53;;;;;;;;;;5071318;28;20041;-52
2022/06/21 04:56:39;;;;;;;6.40;5.07;;;;;;;;;;5071324;28;20499;-43
2022/06/21 04:59:17;;;;;;;7.55;5.72;;;;;;;;;;5071198;28;20040;-50
2022/06/21 05:01:44;;;;;;;7.57;5.97;;;;;;;;;;5070868;28;20039;-54
2022/06/21 05:04:18;;;;;;;6.43;5.55;;;;;;;;;;5070872;28;20036;-51
2022/06/21 05:06:46;;;;;;;7.15;5.82;;;;;;;;;;5071188;28;20377;-46
2022/06/21 05:09:15;;;;;;;7.32;4.78;;;;;;;;;;5071064;28;20046;-47
2022/06/21 05:11:46;;;;;;;6.47;5.03;;;;;;;;;;5070990;28;20584;-46
2022/06/21 05:14:26;;;;;;;7.28;5.05;;;;;;;;;;5070433;28;20067;-49
2022/06/21 05:16:54;;;;;;;6.68;5.25;;;;;;;;;;5070662;28;20044;-53
2022/06/21 05:19:43;;;;;;;6.35;4.82;;;;;;;;;;5070596;28;20041;-47
2022/06/21 05:22:27;;;;;;;6.75;5.63;;;;;;;;;;5070790;28;20412;-43
2022/06/21 05:24:57;;;;;;;6.97;5.63;;;;;;;;;;5070540;28;20040;-54
2022/06/21 05:27:50;;;;;;;6.60;5.50;;;;;;;;;;5070589;28;20522;-44
2022/06/21 05:30:51;;;;;;;6.75;6.05;;;;;;;;;;5070198;28;20039;-43
2022/06/21 05:33:34;;;;;;;6.70;5.70;;;;;;;;;;5063272;28;20056;-44
2022/06/21 05:36:06;;;;;;;6.00;5.40;;;;;;;;;;5070532;28;20119;-45
2022/06/21 05:38:36;;;;;;;6.10;5.25;;;;;;;;;;5069467;28;20037;-43
2022/06/21 05:41:29;;;;;;;6.25;4.82;;;;;;;;;;5070178;28;20099;-45
2022/06/21 05:44:08;;;;;;;7.00;5.65;;;;;;;;;;5068875;28;20052;-46
2022/06/21 05:46:42;;;;;;;6.90;5.00;;;;;;;;;;5069073;28;20041;-43
2022/06/21 05:49:19;;;;;;;5.93;5.00;;;;;;;;;;5070296;28;20135;-43
2022/06/21 05:51:48;;;;;;;9.40;5.10;;;;;;;;;;5070122;28;20048;-52
2022/06/21 05:54:20;;;;;;;6.47;5.70;;;;;;;;;;5068763;28;20052;-54
2022/06/21 05:56:50;;;;;;;13.32;9.20;;;;;;;;;;5070133;28;20522;-55
2022/06/21 05:59:19;;;;;;;7.20;5.55;;;;;;;;;;5070224;28;20040;-52
2022/06/21 06:02:12;;;;;;;6.28;5.68;;;;;;;;;;5069844;28;20579;-54
2022/06/21 06:04:45;;;;;;;5.55;4.82;;;;;;;;;;5066488;28;20053;-52
2022/06/21 06:07:28;;;;;;;6.53;5.25;;;;;;;;;;5070120;28;20045;-55
2022/06/21 06:09:58;;;;;;;7.53;5.45;;;;;;;;;;5069879;28;20115;-52
2022/06/21 06:12:31;;;;;;;7.28;5.40;;;;;;;;;;5069934;28;20052;-53
2022/06/21 06:15:05;;;;;;;7.55;5.18;;;;;;;;;;5069859;28;20751;-51
2022/06/21 06:17:45;;;;;;;13.27;10.55;;;;;;;;;;5070162;28;20039;-51
2022/06/21 06:20:25;;;;;;;6.72;5.53;;;;;;;;;;5069941;28;20509;-50
2022/06/21 06:23:06;;;;;;;6.00;4.60;;;;;;;;;;5069979;28;20120;-44
2022/06/21 06:25:45;;;;;;;6.47;4.70;;;;;;;;;;5070100;28;20040;-44
2022/06/21 06:28:15;;;;;;;5.65;4.30;;;;;;;;;;5069638;28;20549;-44
2022/06/21 06:30:55;;;;;;;5.60;4.53;;;;;;;;;;5069667;28;20567;-52
2022/06/21 06:33:33;;;;;;;6.93;4.20;;;;;;;;;;5069742;28;20051;-49
2022/06/21 06:36:21;;;;;;;13.68;10.07;;;;;;;;;;5069788;28;20032;-46
2022/06/21 06:38:49;;;;;;;11.15;9.25;;;;;;;;;;5069647;28;20028;-50
2022/06/21 06:41:45;;;;;;;6.50;4.50;;;;;;;;;;5070838;28;20064;-46
2022/06/21 06:44:13;;;;;;;9.10;4.95;;;;;;;;;;5073586;28;20055;-45
2022/06/21 06:46:43;;;;;;;4.72;4.22;;;;;;;;;;5073716;28;20776;-50
2022/06/21 06:49:25;;;;;;;5.90;4.25;;;;;;;;;;5073621;28;20052;-49
2022/06/21 06:52:17;;;;;;;6.70;5.13;;;;;;;;;;5073416;28;20483;-39
2022/06/21 06:55:03;;;;;;;5.18;4.25;;;;;;;;;;5073637;28;20460;-42
2022/06/21 06:57:40;;;;;;;6.43;4.60;;;;;;;;;;5073485;28;20040;-44
2022/06/21 07:00:20;;;;;;;5.68;4.57;;;;;;;;;;5073572;28;20045;-45
2022/06/21 07:03:03;;;;;;;5.00;4.13;;;;;;;;;;5073292;28;20055;-42
2022/06/21 07:05:50;;;;;;;27.20;16.05;;;;;;;;;;5073211;28;20067;-43
2022/06/21 07:08:28;;;;;;;5.05;3.03;;;;;;;;;;5073291;28;20036;-44
2022/06/21 07:10:59;;;;;;;5.30;2.70;;;;;;;;;;5073162;28;20037;-43
2022/06/21 07:13:27;;;;;;;4.57;2.08;;;;;;;;;;5072725;28;20048;-43
2022/06/21 07:16:02;;;;;;;3.70;2.67;;;;;;;;;;5073114;28;20094;-48
2022/06/21 07:18:34;;;;;;;2.70;1.98;;;;;;;;;;5074129;28;20063;-52
2022/06/21 07:21:05;;;;;;;2.25;1.63;;;;;;;;;;5073068;28;20051;-44
2022/06/21 07:23:33;;;;;;;3.40;2.13;;;;;;;;;;5073046;28;20044;-46
2022/06/21 07:26:23;;;;;;;3.53;1.30;;;;;;;;;;5072887;28;20068;-44
2022/06/21 07:28:56;;;;;;;1.95;1.40;;;;;;;;;;5072827;28;20439;-45
2022/06/21 07:31:33;;;;;;;7.43;2.03;;;;;;;;;;5072661;28;20066;-46
2022/06/21 07:34:08;;;;;;;4.05;2.55;;;;;;;;;;5072719;28;20052;-45
2022/06/21 07:36:43;;;;;;;3.53;2.85;;;;;;;;;;5072738;28;20032;-45
2022/06/21 07:39:27;;;;;;;26.08;14.52;;;;;;;;;;5072930;28;20447;-39
2022/06/21 07:41:59;;;;;;;4.45;3.03;;;;;;;;;;5072563;28;20048;-50
2022/06/21 07:44:55;;;;;;;2.67;2.10;;;;;;;;;;5072547;28;20048;-45
2022/06/21 07:47:49;;;;;;;2.92;2.00;;;;;;;;;;5049042;28;20131;-55
2022/06/21 07:50:21;;;;;;;2.72;2.08;;;;;;;;;;5068403;28;20048;-57
2022/06/21 07:52:55;;;;;;;2.83;2.10;;;;;;;;;;5071616;28;20465;-57
2022/06/21 07:55:49;;;;;;;2.83;2.17;;;;;;;;;;5072526;28;20052;-56
2022/06/21 07:58:45;;;;;;;;;;;;;;;;;;5072728;28;20036;-56
2022/06/21 08:07:11;;;;;;;3.50;2.45;;;;;;;;;;5072379;28;20047;-56
2022/06/21 08:09:44;;;;;;;3.22;2.35;;;;;;;;;;5071847;28;20036;-49
2022/06/21 08:12:13;;;;;;;;;;;;;;;;;;5071329;28;20037;-56
2022/06/21 08:14:41;;;;;;;5.93;4.75;;;;;;;;;;5072322;28;19920;-51
2022/06/21 08:17:19;;;;;;;4.50;3.08;;;;;;;;;;5071649;28;20040;-42
2022/06/21 08:19:52;;;;;;;4.10;3.22;;;;;;;;;;5071673;28;20798;-45
2022/06/21 08:22:27;;;;;;;3.95;3.15;;;;;;;;;;5071718;28;20102;-56
2022/06/21 08:25:01;;;;;;;4.55;3.47;;;;;;;;;;5071785;28;20050;-46
2022/06/21 08:27:54;;;;;;;4.25;3.05;;;;;;;;;;5071834;28;20037;-47
2022/06/21 08:30:39;;;;;;;6.32;3.35;;;;;;;;;;5071534;28;20049;-45
2022/06/21 08:33:17;;;;;;;4.82;3.90;;;;;;;;;;5071532;28;20059;-43
2022/06/21 08:35:51;;;;;;;5.03;4.00;;;;;;;;;;5071714;28;20072;-46
2022/06/21 08:38:30;;;;;;;4.22;3.58;;;;;;;;;;5071466;28;20043;-55
2022/06/21 08:44:27;;;;;;;4.72;3.72;;;;;;;;;;5071392;28;20687;-46
2022/06/21 08:47:33;;;;;;;4.05;3.30;;;;;;;;;;5071316;28;20045;-43
2022/06/21 08:50:43;;;;;;;4.25;3.50;;;;;;;;;;5070541;28;20048;-42
2022/06/21 08:53:42;;;;;;;4.65;3.80;;;;;;;;;;5070988;28;20045;-49
2022/06/21 08:56:14;;;;;;;45.00;11.70;;;;;;;;;;5071105;28;20102;-45
2022/06/21 08:58:46;;;;;;;4.75;3.42;;;;;;;;;;5071286;28;20041;-51
2022/06/21 09:01:17;;;;;;;4.63;3.90;;;;;;;;;;5070441;28;20060;-51
2022/06/21 09:04:22;;;;;;;6.10;3.85;;;;;;;;;;5071127;28;20404;-53
2022/06/21 09:07:15;;;;;;;6.55;4.00;;;;;;;;;;5070887;28;20040;-42
2022/06/21 09:10:01;;;;;;;4.50;3.78;;;;;;;;;;5071183;28;20062;-54
2022/06/21 09:12:51;;;;;;;5.20;4.00;;;;;;;;;;5070522;28;20052;-46
2022/06/21 09:15:44;;;;;;;4.60;4.00;;;;;;;;;;5070904;28;20447;-47
2022/06/21 09:18:31;;;;;;;3.90;3.30;;;;;;;;;;5070762;28;20048;-56
2022/06/21 09:21:08;;;;;;;18.20;13.30;;;;;;;;;;5070574;28;20044;-49
2022/06/21 09:24:00;;;;;;;6.20;4.97;;;;;;;;;;5070702;28;20072;-55
2022/06/21 09:26:33;;;;;;;4.97;4.05;;;;;;;;;;5070504;28;20048;-55
2022/06/21 09:29:00;;;;;;;;;;;;;;;;;;5070808;28;20388;-51
2022/06/21 09:31:44;;;;;;;5.88;4.30;;;;;;;;;;5069376;28;20015;-57
2022/06/21 09:34:36;;;;;;;5.07;3.95;;;;;;;;;;5070244;28;20055;-53
2022/06/21 09:37:22;;;;;;;4.28;3.78;;;;;;;;;;5070370;28;20040;-56
2022/06/21 09:39:54;;;;;;;5.43;3.78;;;;;;;;;;5070016;28;20044;-55
2022/06/21 09:42:33;;;;;;;5.10;3.80;;;;;;;;;;5070345;28;20087;-51
2022/06/21 09:45:16;;;;;;;6.35;3.60;;;;;;;;;;5070197;28;20068;-49
2022/06/21 09:48:07;;;;;;;4.68;3.83;;;;;;;;;;5070556;28;20475;-42
2022/06/21 09:50:59;;;;;;;4.95;4.25;;;;;;;;;;5070405;28;20044;-44
2022/06/21 09:54:09;;;;;;;7.60;3.60;;;;;;;;;;5069886;28;20058;-52
2022/06/21 09:56:44;;;;;;;4.93;3.58;;;;;;;;;;5070427;28;20044;-55
2022/06/21 09:59:25;;;;;;;4.95;3.75;;;;;;;;;;5070111;28;20055;-44
2022/06/21 10:02:02;;;;;;;5.95;3.75;;;;;;;;;;5069988;28;20040;-55
2022/06/21 10:05:03;;;;;;;4.20;3.58;;;;;;;;;;5070114;28;20040;-56
2022/06/21 10:07:39;;;;;;;5.03;3.80;;;;;;;;;;5069925;28;20036;-57
2022/06/21 10:10:35;;;;;;;4.07;3.25;;;;;;;;;;5069656;28;20115;-44
2022/06/21 10:13:37;;;;;;;4.30;3.70;;;;;;;;;;5069461;28;20110;-44
2022/06/21 10:16:40;;;;;;;4.63;3.65;;;;;;;;;;5069614;28;20068;-42
2022/06/21 10:19:13;;;;;;;5.65;3.60;;;;;;;;;;5070060;28;20423;-45
2022/06/21 10:21:56;;;;;;;;;;;;;;;;;;5070237;28;20067;-45
2022/06/21 10:24:29;;;;;;;4.18;3.20;;;;;;;;;;5069850;28;20333;-50
2022/06/21 10:27:06;;;;;;;4.13;3.13;;;;;;;;;;5069651;28;20724;-56
2022/06/21 10:29:58;;;;;;;3.95;3.00;;;;;;;;;;5069904;28;20051;-54
2022/06/21 10:32:40;;;;;;;60.97;38.08;;;;;;;;;;5070050;28;20403;-48
2022/06/21 10:35:33;;;;;;;5.38;4.20;;;;;;;;;;5069657;28;20049;-50
2022/06/21 10:38:39;;;;;;;4.47;3.10;;;;;;;;;;5069218;28;20052;-46
2022/06/21 10:41:22;;;;;;;3.90;3.03;;;;;;;;;;5069673;28;20044;-46
2022/06/21 10:44:03;;;;;;;3.28;2.50;;;;;;;;;;5069821;28;20049;-56
2022/06/21 10:46:50;;;;;;;4.10;2.92;;;;;;;;;;5069817;28;20862;-52
2022/06/21 10:49:35;;;;;;;5.50;3.58;;;;;;;;;;5069583;28;20036;-50
2022/06/21 10:52:12;;;;;;;5.57;2.70;;;;;;;;;;5069654;28;20084;-49
2022/06/21 10:55:06;;;;;;;3.55;2.83;;;;;;;;;;5069502;28;20068;-58
2022/06/21 10:58:08;;;;;;;3.65;2.55;;;;;;;;;;5069266;28;20054;-47
2022/06/21 11:04:02;;;;;;;3.38;2.40;;;;;;;;;;5057285;28;20060;-49
2022/06/21 11:06:33;;;;;;;3.45;2.50;;;;;;;;;;5069187;28;20419;-54
2022/06/21 11:09:10;;;;;;;5.53;2.25;;;;;;;;;;5069303;28;20044;-43
2022/06/21 11:15:18;;;;;;;3.55;2.38;;;;;;;;;;5049482;28;20067;-53
2022/06/21 11:18:00;;;;;;;2.95;2.33;;;;;;;;;;5049629;28;20041;-53
2022/06/21 11:20:58;;;;;;;3.35;2.53;;;;;;;;;;5049654;28;20048;-54
2022/06/21 11:23:43;;;;;;;8.43;4.57;;;;;;;;;;5034568;28;20057;-46
2022/06/21 11:26:31;;;;;;;3.00;2.10;;;;;;;;;;5049580;28;20037;-51
2022/06/21 11:29:38;;;;;;;3.45;2.25;;;;;;;;;;5051794;28;20623;-53
2022/06/21 11:32:17;;;;;;;4.80;2.33;;;;;;;;;;5061420;28;20036;-57
2022/06/21 11:34:59;;;;;;;3.67;2.00;;;;;;;;;;5052859;28;20048;-57
2022/06/21 11:37:59;;;;;;;5.28;2.05;;;;;;;;;;5052745;28;20067;-43
2022/06/21 11:40:40;;;;;;;3.80;2.30;;;;;;;;;;5052842;28;20045;-49
2022/06/21 11:43:49;;;;;;;3.22;2.13;;;;;;;;;;5052845;28;20507;-44
2022/06/21 11:46:33;;;;;;;4.97;2.15;;;;;;;;;;5039230;28;20052;-47
2022/06/21 11:49:34;;;;;;;3.00;1.92;;;;;;;;;;5052687;28;20056;-48
2022/06/21 11:52:18;;;;;;;2.63;2.10;;;;;;;;;;5052353;28;20492;-51
2022/06/21 11:54:52;;;;;;;3.03;2.13;;;;;;;;;;5052860;28;20466;-47
2022/06/21 11:57:40;;;;;;;2.25;1.75;;;;;;;;;;5052531;28;20116;-48
2022/06/21 12:00:16;;;;;;;3.60;2.10;;;;;;;;;;5052321;28;20531;-44
2022/06/21 12:03:02;;;;;;;3.72;2.33;;;;;;;;;;5052255;28;20047;-42
2022/06/21 12:05:32;;;;;;;3.10;2.00;;;;;;;;;;5052254;28;20037;-56
2022/06/21 12:08:24;;;;;;;3.13;1.60;;;;;;;;;;5052253;28;20069;-57
2022/06/21 12:11:02;;;;;;;3.00;1.67;;;;;;;;;;5067387;28;20037;-42
2022/06/21 12:13:36;;;;;;;3.95;1.83;;;;;;;;;;5051938;28;20083;-47
2022/06/21 12:16:30;;;;;;;5.05;1.70;;;;;;;;;;5052046;28;20048;-46
2022/06/21 12:19:10;;;;;;;3.92;1.63;;;;;;;;;;5052167;28;20047;-44
2022/06/21 12:22:05;;;;;;;2.70;1.92;;;;;;;;;;5052202;28;20481;-51
2022/06/21 12:24:33;;;;;;;2.58;1.90;;;;;;;;;;5021554;28;20052;-50
2022/06/21 12:27:01;;;;;;;14.65;9.30;;;;;;;;;;5051987;28;20048;-57
2022/06/21 12:29:31;;;;;;;3.30;1.92;;;;;;;;;;5051732;28;20068;-43
2022/06/21 12:32:01;;;;;;;1.90;1.38;;;;;;;;;;5051766;28;20056;-58
2022/06/21 12:34:47;;;;;;;2.28;1.63;;;;;;;;;;5051430;28;20501;-48
2022/06/21 12:37:21;;;;;;;3.03;1.70;;;;;;;;;;5051934;28;20037;-51
2022/06/21 12:39:55;;;;;;;3.53;1.70;;;;;;;;;;5071085;28;20044;-44
2022/06/21 12:42:49;;;;;;;2.95;1.70;;;;;;;;;;5071262;28;20055;-41
2022/06/21 12:45:26;;;;;;;4.65;1.80;;;;;;;;;;5071305;28;20128;-52
2022/06/21 12:48:13;;;;;;;2.65;1.90;;;;;;;;;;5071337;28;20492;-49
2022/06/21 12:50:59;;;;;;;4.43;2.05;;;;;;;;;;5071213;28;20071;-57
2022/06/21 12:53:51;;;;;;;3.03;1.85;;;;;;;;;;5071238;28;20060;-43
2022/06/21 12:56:45;;;;;;;6.88;4.97;;;;;;;;;;5071618;28;20036;-56
2022/06/21 12:59:37;;;;;;;5.30;2.40;;;;;;;;;;5071373;28;20052;-43
2022/06/21 13:02:28;;;;;;;2.53;1.85;;;;;;;;;;5071198;28;20044;-55
2022/06/21 13:05:20;;;;;;;2.47;1.85;;;;;;;;;;5071300;28;20052;-51
2022/06/21 13:08:15;;;;;;;1.75;1.42;;;;;;;;;;5071215;28;20117;-46
2022/06/21 13:10:55;;;;;;;4.57;2.47;;;;;;;;;;5070986;28;20090;-50
2022/06/21 13:13:37;;;;;;;2.78;2.00;;;;;;;;;;5070744;28;20427;-50
2022/06/21 13:16:35;;;;;;;4.18;1.90;;;;;;;;;;5070949;28;20037;-58
2022/06/21 13:19:21;;;;;;;2.85;2.17;;;;;;;;;;5071421;28;20033;-57
2022/06/21 13:22:00;;;;;;;3.17;1.88;;;;;;;;;;5070816;28;20101;-52
2022/06/21 13:24:45;;;;;;;4.28;2.40;;;;;;;;;;5070841;28;20090;-56
2022/06/21 13:27:17;;;;;;;4.38;2.17;;;;;;;;;;5070837;28;20095;-55
2022/06/21 13:30:04;;;;;;;9.07;6.30;;;;;;;;;;5071037;28;20043;-51
2022/06/21 13:32:40;;;;;;;2.60;1.88;;;;;;;;;;5069629;28;20041;-62
2022/06/21 13:35:22;;;;;;;2.70;2.10;;;;;;;;;;5050689;28;20045;-61
2022/06/21 13:38:03;;;;;;;2.65;1.98;;;;;;;;;;5066552;28;20079;-48
2022/06/21 13:40:33;;;;;;;3.75;2.42;;;;;;;;;;5050261;28;20049;-50
2022/06/21 13:43:09;;;;;;;3.08;2.03;;;;;;;;;;5050573;28;20441;-58
2022/06/21 13:45:59;;;;;;;3.55;2.00;;;;;;;;;;5050316;28;20072;-58
2022/06/21 13:48:35;;;;;;;3.08;2.17;;;;;;;;;;5050253;28;20107;-51
2022/06/21 13:51:27;;;;;;;2.90;1.90;;;;;;;;;;5049576;28;20049;-54
2022/06/21 13:54:15;;;;;;;4.28;2.17;;;;;;;;;;5052272;28;20400;-49
2022/06/21 13:56:51;;;;;;;3.13;2.13;;;;;;;;;;5050384;28;20045;-55
2022/06/21 13:59:37;;;;;;;2.70;2.05;;;;;;;;;;5050273;28;20045;-53
2022/06/21 14:02:22;;;;;;;5.07;2.70;;;;;;;;;;5053090;28;20036;-56
2022/06/21 14:04:59;;;;;;;9.57;6.43;;;;;;;;;;5067982;28;20119;-52
2022/06/21 14:07:45;;;;;;;6.85;4.78;;;;;;;;;;5068996;28;20048;-54
2022/06/21 14:10:24;;;;;;;2.75;2.05;;;;;;;;;;5070203;28;20079;-56
2022/06/21 14:13:17;;;;;;;3.45;2.55;;;;;;;;;;5069618;28;20056;-52
2022/06/21 14:15:56;;;;;;;3.13;2.25;;;;;;;;;;5067947;28;20052;-54
2022/06/21 14:18:39;;;;;;;2.63;1.63;;;;;;;;;;5067351;28;20564;-58
2022/06/21 14:21:26;;;;;;;3.30;1.92;;;;;;;;;;5069269;28;20084;-58
2022/06/21 14:24:05;;;;;;;2.42;1.80;;;;;;;;;;5068348;28;20043;-52
2022/06/21 14:26:41;;;;;;;3.13;2.05;;;;;;;;;;5067912;28;20106;-54
2022/06/21 14:29:28;;;;;;;1.88;1.45;;;;;;;;;;5067756;28;20676;-58
2022/06/21 14:32:04;;;;;;;3.13;1.98;;;;;;;;;;5067975;28;20039;-59
2022/06/21 14:34:55;;;;;;;2.78;1.63;;;;;;;;;;5067973;28;20055;-58
2022/06/21 14:37:33;;;;;;;3.17;1.95;;;;;;;;;;5067605;28;20546;-59
2022/06/21 14:40:29;;;;;;;3.35;1.75;;;;;;;;;;5049669;28;20037;-55
2022/06/21 14:43:07;;;;;;;2.10;1.63;;;;;;;;;;5049797;28;20048;-57
2022/06/21 14:46:04;;;;;;;9.68;6.57;;;;;;;;;;5049818;28;20091;-57
2022/06/21 14:48:57;;;;;;;3.72;2.20;;;;;;;;;;5049723;28;20033;-54
2022/06/21 14:51:45;;;;;;;2.50;1.80;;;;;;;;;;5049707;28;20497;-49
2022/06/21 14:54:45;;;;;;;3.03;2.15;;;;;;;;;;5049566;28;20124;-48
2022/06/21 14:57:50;;;;;;;3.83;1.60;;;;;;;;;;5030158;28;20053;-57
2022/06/21 15:00:37;;;;;;;4.70;3.03;;;;;;;;;;5027621;28;20077;-55
2022/06/21 15:03:52;;;;;;;3.42;2.17;;;;;;;;;;5028657;28;20095;-58
2022/06/21 15:06:39;;;;;;;2.45;1.73;;;;;;;;;;5052233;28;20053;-44
2022/06/21 15:09:28;;;;;;;2.53;1.80;;;;;;;;;;5053289;28;20091;-56
2022/06/21 15:12:05;;;;;;;2.35;1.73;;;;;;;;;;5053113;28;20048;-55
2022/06/21 15:14:54;;;;;;;2.35;1.80;;;;;;;;;;5052969;28;20048;-58
2022/06/21 15:17:24;;;;;;;2.45;1.80;;;;;;;;;;5052994;28;20045;-58
2022/06/21 15:19:59;;;;;;;2.80;1.75;;;;;;;;;;5052986;28;20065;-55
2022/06/21 15:22:36;;;;;;;2.47;1.70;;;;;;;;;;5053103;28;20037;-50
2022/06/21 15:25:20;;;;;;;51.78;36.20;;;;;;;;;;5052899;28;20159;-52
2022/06/21 15:28:05;;;;;;;3.35;2.13;;;;;;;;;;5053452;28;20086;-58
2022/06/21 15:30:43;;;;;;;3.05;1.90;;;;;;;;;;5053175;28;20068;-50
2022/06/21 15:33:25;;;;;;;2.80;1.90;;;;;;;;;;5052877;28;20052;-58
2022/06/21 15:36:25;;;;;;;3.80;1.80;;;;;;;;;;5052449;28;20053;-48
2022/06/21 15:39:06;;;;;;;2.20;1.60;;;;;;;;;;5064515;28;20040;-51
2022/06/21 15:41:45;;;;;;;2.53;1.80;;;;;;;;;;5072547;28;20040;-54
2022/06/21 15:44:25;;;;;;;3.30;2.25;;;;;;;;;;5072752;28;20071;-52
2022/06/21 15:52:44;;;;;;;2.85;2.00;;;;;;;;;;5072308;28;20044;-55
2022/06/21 15:55:24;;;;;;;3.20;2.20;;;;;;;;;;5071123;28;20048;-51
2022/06/21 15:58:01;;;;;;;20.90;16.08;;;;;;;;;;5072456;28;20380;-47
2022/06/21 16:00:49;;;;;;;2.92;1.90;;;;;;;;;;5072335;28;20037;-53
2022/06/21 16:03:28;;;;;;;4.75;1.75;;;;;;;;;;5072475;28;20040;-59
2022/06/21 16:06:02;;;;;;;2.72;1.55;;;;;;;;;;5072235;28;20119;-51
2022/06/21 16:08:41;;;;;;;4.38;1.80;;;;;;;;;;5072122;28;20040;-57
2022/06/21 16:11:17;;;;;;;3.03;1.95;;;;;;;;;;5072319;28;20591;-51
2022/06/21 16:13:52;;;;;;;2.40;1.90;;;;;;;;;;5071303;28;20057;-54
2022/06/21 16:16:23;;;;;;;2.88;2.08;;;;;;;;;;5072315;28;20048;-46
2022/06/21 16:18:57;;;;;;;3.03;2.15;;;;;;;;;;5071847;28;20455;-42
2022/06/21 16:21:33;;;;;;;3.17;2.10;;;;;;;;;;5072292;28;20053;-59
2022/06/21 16:24:06;;;;;;;2.30;1.75;;;;;;;;;;5071834;28;20052;-58
2022/06/21 16:26:36;;;;;;;2.25;1.73;;;;;;;;;;5072226;28;20098;-56